Time;durP1;ratioP1;P1;durP2;ratioP2;P2;SDS_P1;SDS_P2;PMS_P1;PMS_P2;Temp;Humidity;BMP_temperature;BMP_pressure;BME280_temperature;BME280_humidity;BME280_pressure;Samples;Min_cycle;Max_cycle;Signal;HPM_P1;HPM_P2
2023/12/03 00:00:34;;;;;;;12.7;8.2;;;;;;;;;;;;;
2023/12/03 00:02:59;;;;;;;13.3;7.5;;;;;;;;;;;;;
2023/12/03 00:05:24;;;;;;;10.9;7.2;;;;;;;;;;;;;
2023/12/03 00:07:50;;;;;;;12.7;7.9;;;;;;;;;;;;;
2023/12/03 00:10:21;;;;;;;10.9;7.4;;;;;;;;;;;;;
2023/12/03 00:12:47;;;;;;;12.3;7.8;;;;;;;;;;;;;
2023/12/03 00:15:21;;;;;;;10.8;7.3;;;;;;;;;;;;;
2023/12/03 00:17:47;;;;;;;11.5;7.7;;;;;;;;;;;;;
2023/12/03 00:20:20;;;;;;;10.2;7;;;;;;;;;;;;;
2023/12/03 00:22:48;;;;;;;10.1;6.9;;;;;;;;;;;;;
2023/12/03 00:25:23;;;;;;;11;6.9;;;;;;;;;;;;;
2023/12/03 00:27:53;;;;;;;10.4;7.1;;;;;;;;;;;;;
2023/12/03 00:30:18;;;;;;;10.7;7.1;;;;;;;;;;;;;
2023/12/03 00:32:53;;;;;;;9.8;7.1;;;;;;;;;;;;;
2023/12/03 00:35:19;;;;;;;11.1;7.4;;;;;;;;;;;;;
2023/12/03 00:37:51;;;;;;;9.5;6.5;;;;;;;;;;;;;
2023/12/03 00:40:22;;;;;;;10.3;7;;;;;;;;;;;;;
2023/12/03 00:42:54;;;;;;;10.1;6.8;;;;;;;;;;;;;
2023/12/03 00:45:22;;;;;;;10.1;6.9;;;;;;;;;;;;;
2023/12/03 00:47:47;;;;;;;9.6;6.2;;;;;;;;;;;;;
2023/12/03 00:50:17;;;;;;;9.5;6.3;;;;;;;;;;;;;
2023/12/03 00:52:45;;;;;;;9.5;6.2;;;;;;;;;;;;;
2023/12/03 00:55:11;;;;;;;10.1;6.6;;;;;;;;;;;;;
2023/12/03 00:57:38;;;;;;;9.7;6.5;;;;;;;;;;;;;
2023/12/03 01:00:04;;;;;;;9.5;6.5;;;;;;;;;;;;;
2023/12/03 01:02:37;;;;;;;9.4;6.3;;;;;;;;;;;;;
2023/12/03 01:05:08;;;;;;;9.6;6.3;;;;;;;;;;;;;
2023/12/03 01:07:37;;;;;;;9.9;6.5;;;;;;;;;;;;;
2023/12/03 01:10:02;;;;;;;9.2;6.2;;;;;;;;;;;;;
2023/12/03 01:12:32;;;;;;;9.5;6.5;;;;;;;;;;;;;
2023/12/03 01:15:02;;;;;;;10.5;6.6;;;;;;;;;;;;;
2023/12/03 01:17:27;;;;;;;10.9;6.8;;;;;;;;;;;;;
2023/12/03 01:19:54;;;;;;;9.8;6.5;;;;;;;;;;;;;
2023/12/03 01:22:19;;;;;;;8.7;6.2;;;;;;;;;;;;;
2023/12/03 01:24:47;;;;;;;9.5;6.6;;;;;;;;;;;;;
2023/12/03 01:27:12;;;;;;;9.6;6.3;;;;;;;;;;;;;
2023/12/03 01:29:38;;;;;;;9.4;6.2;;;;;;;;;;;;;
2023/12/03 01:32:03;;;;;;;9.2;6.3;;;;;;;;;;;;;
2023/12/03 01:34:28;;;;;;;10.1;6.7;;;;;;;;;;;;;
2023/12/03 01:36:53;;;;;;;10;6.4;;;;;;;;;;;;;
2023/12/03 01:39:21;;;;;;;11.5;7.2;;;;;;;;;;;;;
2023/12/03 01:41:46;;;;;;;11.8;7.5;;;;;;;;;;;;;
2023/12/03 01:44:11;;;;;;;10.6;7.1;;;;;;;;;;;;;
2023/12/03 01:46:37;;;;;;;10.3;7;;;;;;;;;;;;;
2023/12/03 01:49:02;;;;;;;11.4;7.3;;;;;;;;;;;;;
2023/12/03 01:51:28;;;;;;;9.4;6.7;;;;;;;;;;;;;
2023/12/03 01:53:53;;;;;;;11.6;7.6;;;;;;;;;;;;;
2023/12/03 01:56:18;;;;;;;11.7;7.6;;;;;;;;;;;;;
2023/12/03 01:58:43;;;;;;;12;7.2;;;;;;;;;;;;;
2023/12/03 02:01:09;;;;;;;11.7;7.8;;;;;;;;;;;;;
2023/12/03 02:03:34;;;;;;;11;7.4;;;;;;;;;;;;;
2023/12/03 02:06:02;;;;;;;11;7.5;;;;;;;;;;;;;
2023/12/03 02:08:27;;;;;;;10.7;7.5;;;;;;;;;;;;;
2023/12/03 02:10:53;;;;;;;12;7.5;;;;;;;;;;;;;
2023/12/03 02:13:19;;;;;;;11.2;7.7;;;;;;;;;;;;;
2023/12/03 02:15:45;;;;;;;12.1;7.8;;;;;;;;;;;;;
2023/12/03 02:18:10;;;;;;;11.4;7.8;;;;;;;;;;;;;
2023/12/03 02:20:36;;;;;;;12;8.3;;;;;;;;;;;;;
2023/12/03 02:23:01;;;;;;;12.6;8;;;;;;;;;;;;;
2023/12/03 02:25:27;;;;;;;12.9;8.3;;;;;;;;;;;;;
2023/12/03 02:27:52;;;;;;;12.3;8;;;;;;;;;;;;;
2023/12/03 02:30:21;;;;;;;15;8.8;;;;;;;;;;;;;
2023/12/03 02:32:46;;;;;;;12.7;8.7;;;;;;;;;;;;;
2023/12/03 02:35:17;;;;;;;12.8;8.5;;;;;;;;;;;;;
2023/12/03 02:37:45;;;;;;;14.8;9.4;;;;;;;;;;;;;
2023/12/03 02:40:10;;;;;;;14.7;9.3;;;;;;;;;;;;;
2023/12/03 02:42:41;;;;;;;14.4;8.8;;;;;;;;;;;;;
2023/12/03 02:45:11;;;;;;;14.3;9.6;;;;;;;;;;;;;
2023/12/03 02:47:43;;;;;;;13.4;9.2;;;;;;;;;;;;;
2023/12/03 02:50:15;;;;;;;15.3;9.8;;;;;;;;;;;;;
2023/12/03 02:52:48;;;;;;;13.1;8.7;;;;;;;;;;;;;
2023/12/03 02:55:19;;;;;;;14.4;8.7;;;;;;;;;;;;;
2023/12/03 02:57:45;;;;;;;14.2;8.9;;;;;;;;;;;;;
2023/12/03 03:00:10;;;;;;;13.2;8.9;;;;;;;;;;;;;
2023/12/03 03:02:39;;;;;;;12.8;8.5;;;;;;;;;;;;;
2023/12/03 03:05:04;;;;;;;14.5;8.8;;;;;;;;;;;;;
2023/12/03 03:07:34;;;;;;;13.6;8.4;;;;;;;;;;;;;
2023/12/03 03:09:59;;;;;;;12.7;8.3;;;;;;;;;;;;;
2023/12/03 03:12:27;;;;;;;11.9;8.2;;;;;;;;;;;;;
2023/12/03 03:14:52;;;;;;;13.4;8.3;;;;;;;;;;;;;
2023/12/03 03:17:18;;;;;;;12.9;8.4;;;;;;;;;;;;;
2023/12/03 03:19:44;;;;;;;14.4;8.8;;;;;;;;;;;;;
2023/12/03 03:22:11;;;;;;;13.5;8.8;;;;;;;;;;;;;
2023/12/03 03:24:37;;;;;;;12.6;8.6;;;;;;;;;;;;;
2023/12/03 03:27:02;;;;;;;14.2;8.8;;;;;;;;;;;;;
2023/12/03 03:29:27;;;;;;;13;8.5;;;;;;;;;;;;;
2023/12/03 03:31:52;;;;;;;12.8;8.4;;;;;;;;;;;;;
2023/12/03 03:34:17;;;;;;;12.1;8.3;;;;;;;;;;;;;
2023/12/03 03:36:44;;;;;;;13.8;9;;;;;;;;;;;;;
2023/12/03 03:39:09;;;;;;;13.9;9.1;;;;;;;;;;;;;
2023/12/03 03:41:36;;;;;;;13.5;9.6;;;;;;;;;;;;;
2023/12/03 03:44:02;;;;;;;14.8;10;;;;;;;;;;;;;
2023/12/03 03:46:28;;;;;;;16.9;10.1;;;;;;;;;;;;;
2023/12/03 03:48:54;;;;;;;16.4;10.3;;;;;;;;;;;;;
2023/12/03 03:51:21;;;;;;;17;10.2;;;;;;;;;;;;;
2023/12/03 03:53:46;;;;;;;17.3;10.7;;;;;;;;;;;;;
2023/12/03 03:56:12;;;;;;;16.6;10.5;;;;;;;;;;;;;
2023/12/03 03:58:37;;;;;;;16.1;11;;;;;;;;;;;;;
2023/12/03 04:02:32;;;;;;;14.4;9.7;;;;;;;;;;;;;
2023/12/03 04:05:00;;;;;;;14.4;9.4;;;;;;;;;;;;;
2023/12/03 04:07:25;;;;;;;15.3;9.7;;;;;;;;;;;;;
2023/12/03 04:09:54;;;;;;;14.9;9.6;;;;;;;;;;;;;
2023/12/03 04:12:19;;;;;;;14.4;9.4;;;;;;;;;;;;;
2023/12/03 04:14:46;;;;;;;17;10.7;;;;;;;;;;;;;
2023/12/03 04:17:11;;;;;;;17.2;10.6;;;;;;;;;;;;;
2023/12/03 04:19:37;;;;;;;17.6;11;;;;;;;;;;;;;
2023/12/03 04:22:02;;;;;;;16.4;10.4;;;;;;;;;;;;;
2023/12/03 04:24:29;;;;;;;15.8;10.1;;;;;;;;;;;;;
2023/12/03 04:26:54;;;;;;;17;10.9;;;;;;;;;;;;;
2023/12/03 04:29:22;;;;;;;15.2;10.1;;;;;;;;;;;;;
2023/12/03 04:31:47;;;;;;;14.5;10;;;;;;;;;;;;;
2023/12/03 04:34:16;;;;;;;16.3;10.2;;;;;;;;;;;;;
2023/12/03 04:36:41;;;;;;;15.9;10.1;;;;;;;;;;;;;
2023/12/03 04:39:10;;;;;;;16.3;10.1;;;;;;;;;;;;;
2023/12/03 04:41:35;;;;;;;15.3;10.4;;;;;;;;;;;;;
2023/12/03 04:44:04;;;;;;;14.1;9.9;;;;;;;;;;;;;
2023/12/03 04:46:28;;;;;;;15.4;10;;;;;;;;;;;;;
2023/12/03 04:48:53;;;;;;;15.3;10.4;;;;;;;;;;;;;
2023/12/03 04:51:19;;;;;;;14.9;10.1;;;;;;;;;;;;;
2023/12/03 04:53:44;;;;;;;16.7;10.5;;;;;;;;;;;;;
2023/12/03 04:56:10;;;;;;;17.3;10.6;;;;;;;;;;;;;
2023/12/03 04:58:36;;;;;;;16.8;10.1;;;;;;;;;;;;;
2023/12/03 05:01:01;;;;;;;17;10.6;;;;;;;;;;;;;
2023/12/03 05:03:29;;;;;;;16.2;10.5;;;;;;;;;;;;;
2023/12/03 05:05:54;;;;;;;16.2;10.4;;;;;;;;;;;;;
2023/12/03 05:08:20;;;;;;;13.8;9.4;;;;;;;;;;;;;
2023/12/03 05:10:46;;;;;;;14.2;9.4;;;;;;;;;;;;;
2023/12/03 05:13:11;;;;;;;14.5;9.2;;;;;;;;;;;;;
2023/12/03 05:15:36;;;;;;;14.8;9.9;;;;;;;;;;;;;
2023/12/03 05:18:04;;;;;;;16;9.7;;;;;;;;;;;;;
2023/12/03 05:20:29;;;;;;;15;9.8;;;;;;;;;;;;;
2023/12/03 05:22:56;;;;;;;20.4;11.4;;;;;;;;;;;;;
2023/12/03 05:25:24;;;;;;;37.7;22.3;;;;;;;;;;;;;
2023/12/03 05:27:54;;;;;;;18.7;12.2;;;;;;;;;;;;;
2023/12/03 05:30:22;;;;;;;19.3;11.1;;;;;;;;;;;;;
2023/12/03 05:32:46;;;;;;;15.1;10;;;;;;;;;;;;;
2023/12/03 05:35:15;;;;;;;13.8;9.8;;;;;;;;;;;;;
2023/12/03 05:37:43;;;;;;;14.7;10.1;;;;;;;;;;;;;
2023/12/03 05:42:11;;;;;;;16.7;9.7;;;;;;;;;;;;;
2023/12/03 05:44:35;;;;;;;16.7;10.6;;;;;;;;;;;;;
2023/12/03 05:47:01;;;;;;;15.6;10.5;;;;;;;;;;;;;
2023/12/03 05:49:27;;;;;;;18.6;11.9;;;;;;;;;;;;;
2023/12/03 05:51:51;;;;;;;19.5;11.9;;;;;;;;;;;;;
2023/12/03 05:54:16;;;;;;;20.7;11.2;;;;;;;;;;;;;
2023/12/03 05:56:43;;;;;;;23.6;13.5;;;;;;;;;;;;;
2023/12/03 05:59:08;;;;;;;22.8;13.6;;;;;;;;;;;;;
2023/12/03 06:01:36;;;;;;;17.3;11;;;;;;;;;;;;;
2023/12/03 06:04:06;;;;;;;17.2;10.9;;;;;;;;;;;;;
2023/12/03 06:06:26;;;;;;;16.3;10.7;;;;;;;;;;;;;
2023/12/03 06:08:54;;;;;;;16.1;10.3;;;;;;;;;;;;;
2023/12/03 06:11:19;;;;;;;16.2;10.1;;;;;;;;;;;;;
2023/12/03 06:13:44;;;;;;;16.4;10.3;;;;;;;;;;;;;
2023/12/03 06:16:09;;;;;;;14.5;9.7;;;;;;;;;;;;;
2023/12/03 06:18:38;;;;;;;15.3;9.9;;;;;;;;;;;;;
2023/12/03 06:21:07;;;;;;;15.9;9.9;;;;;;;;;;;;;
2023/12/03 06:23:32;;;;;;;16.7;10.1;;;;;;;;;;;;;
2023/12/03 06:26:02;;;;;;;15.9;10.4;;;;;;;;;;;;;
2023/12/03 06:28:29;;;;;;;16.8;9.8;;;;;;;;;;;;;
2023/12/03 06:30:54;;;;;;;17.6;10.7;;;;;;;;;;;;;
2023/12/03 06:33:22;;;;;;;16.5;10.4;;;;;;;;;;;;;
2023/12/03 06:35:47;;;;;;;17.6;10.1;;;;;;;;;;;;;
2023/12/03 06:38:15;;;;;;;17.6;9.9;;;;;;;;;;;;;
2023/12/03 06:40:40;;;;;;;15.9;9.4;;;;;;;;;;;;;
2023/12/03 06:43:05;;;;;;;16;10.1;;;;;;;;;;;;;
2023/12/03 06:45:31;;;;;;;14.6;9.3;;;;;;;;;;;;;
2023/12/03 06:47:57;;;;;;;18.1;10;;;;;;;;;;;;;
2023/12/03 06:50:22;;;;;;;16.1;12.1;;;;;;;;;;;;;
2023/12/03 06:52:47;;;;;;;16.7;11.5;;;;;;;;;;;;;
2023/12/03 06:55:14;;;;;;;16.1;9.3;;;;;;;;;;;;;
2023/12/03 06:57:42;;;;;;;17.8;10.5;;;;;;;;;;;;;
2023/12/03 07:00:08;;;;;;;14.9;10;;;;;;;;;;;;;
2023/12/03 07:02:36;;;;;;;16.2;10.3;;;;;;;;;;;;;
2023/12/03 07:05:01;;;;;;;15.8;9.3;;;;;;;;;;;;;
2023/12/03 07:07:30;;;;;;;15.9;9.2;;;;;;;;;;;;;
2023/12/03 07:09:59;;;;;;;27.2;9.7;;;;;;;;;;;;;
2023/12/03 07:12:24;;;;;;;25.8;9.4;;;;;;;;;;;;;
2023/12/03 07:14:51;;;;;;;17;9.9;;;;;;;;;;;;;
2023/12/03 07:17:16;;;;;;;16.6;9.7;;;;;;;;;;;;;
2023/12/03 07:19:43;;;;;;;16.8;10.1;;;;;;;;;;;;;
2023/12/03 07:22:08;;;;;;;15.8;9.6;;;;;;;;;;;;;
2023/12/03 07:24:34;;;;;;;17.5;10.7;;;;;;;;;;;;;
2023/12/03 07:26:59;;;;;;;18.2;10.6;;;;;;;;;;;;;
2023/12/03 07:29:27;;;;;;;16.5;10.1;;;;;;;;;;;;;
2023/12/03 07:31:53;;;;;;;13.9;7.4;;;;;;;;;;;;;
2023/12/03 07:34:20;;;;;;;14.8;7.9;;;;;;;;;;;;;
2023/12/03 07:36:45;;;;;;;19.1;9.5;;;;;;;;;;;;;
2023/12/03 07:39:13;;;;;;;18.5;9.2;;;;;;;;;;;;;
2023/12/03 07:41:38;;;;;;;15.7;10.1;;;;;;;;;;;;;
2023/12/03 07:44:04;;;;;;;14.9;9.4;;;;;;;;;;;;;
2023/12/03 07:46:29;;;;;;;17.4;10.7;;;;;;;;;;;;;
2023/12/03 07:48:57;;;;;;;17;10.4;;;;;;;;;;;;;
2023/12/03 07:51:22;;;;;;;15.6;9.3;;;;;;;;;;;;;
2023/12/03 07:53:49;;;;;;;14.9;9.4;;;;;;;;;;;;;
2023/12/03 07:56:14;;;;;;;16.7;9.6;;;;;;;;;;;;;
2023/12/03 07:58:41;;;;;;;14.9;9.3;;;;;;;;;;;;;
2023/12/03 08:01:08;;;;;;;18.3;10.4;;;;;;;;;;;;;
2023/12/03 08:03:35;;;;;;;15.6;9.5;;;;;;;;;;;;;
2023/12/03 08:06:00;;;;;;;15.4;8.8;;;;;;;;;;;;;
2023/12/03 08:08:27;;;;;;;15;9.5;;;;;;;;;;;;;
2023/12/03 08:10:52;;;;;;;19.6;10.5;;;;;;;;;;;;;
2023/12/03 08:13:20;;;;;;;26;12.4;;;;;;;;;;;;;
2023/12/03 08:15:45;;;;;;;24.9;11.1;;;;;;;;;;;;;
2023/12/03 08:18:12;;;;;;;20.9;9.6;;;;;;;;;;;;;
2023/12/03 08:20:37;;;;;;;12.9;8.3;;;;;;;;;;;;;
2023/12/03 08:23:06;;;;;;;15.8;8.4;;;;;;;;;;;;;
2023/12/03 08:25:32;;;;;;;15.7;8.7;;;;;;;;;;;;;
2023/12/03 08:27:57;;;;;;;12.2;7.8;;;;;;;;;;;;;
2023/12/03 08:30:22;;;;;;;13;7.8;;;;;;;;;;;;;
2023/12/03 08:32:50;;;;;;;14.4;8.4;;;;;;;;;;;;;
2023/12/03 08:35:15;;;;;;;8.6;6.1;;;;;;;;;;;;;
2023/12/03 08:37:41;;;;;;;9.9;5.8;;;;;;;;;;;;;
2023/12/03 08:40:06;;;;;;;9.4;6.1;;;;;;;;;;;;;
2023/12/03 08:42:35;;;;;;;8.9;5.3;;;;;;;;;;;;;
2023/12/03 08:45:00;;;;;;;10.2;5.5;;;;;;;;;;;;;
2023/12/03 08:47:28;;;;;;;9;5.6;;;;;;;;;;;;;
2023/12/03 08:49:56;;;;;;;9.6;5.9;;;;;;;;;;;;;
2023/12/03 08:52:22;;;;;;;9.8;5.8;;;;;;;;;;;;;
2023/12/03 08:54:47;;;;;;;7.9;5.1;;;;;;;;;;;;;
2023/12/03 08:57:12;;;;;;;11.2;6.8;;;;;;;;;;;;;
2023/12/03 08:59:40;;;;;;;8.9;6.3;;;;;;;;;;;;;
2023/12/03 09:02:05;;;;;;;14.9;8.4;;;;;;;;;;;;;
2023/12/03 09:04:35;;;;;;;19.1;10.6;;;;;;;;;;;;;
2023/12/03 09:07:05;;;;;;;13.6;7.6;;;;;;;;;;;;;
2023/12/03 09:09:34;;;;;;;13.2;7.6;;;;;;;;;;;;;
2023/12/03 09:11:59;;;;;;;11;6.4;;;;;;;;;;;;;
2023/12/03 09:14:29;;;;;;;11;7.2;;;;;;;;;;;;;
2023/12/03 09:16:58;;;;;;;9.9;6.4;;;;;;;;;;;;;
2023/12/03 09:19:23;;;;;;;10;5.7;;;;;;;;;;;;;
2023/12/03 09:21:50;;;;;;;10.3;6.2;;;;;;;;;;;;;
2023/12/03 09:24:15;;;;;;;19.6;9.7;;;;;;;;;;;;;
2023/12/03 09:26:44;;;;;;;8.8;5.4;;;;;;;;;;;;;
2023/12/03 09:29:10;;;;;;;7.8;4.3;;;;;;;;;;;;;
2023/12/03 09:31:32;;;;;;;10.2;6;;;;;;;;;;;;;
2023/12/03 09:33:58;;;;;;;10.9;6.4;;;;;;;;;;;;;
2023/12/03 09:36:23;;;;;;;11.2;7.1;;;;;;;;;;;;;
2023/12/03 09:38:52;;;;;;;9.9;5.9;;;;;;;;;;;;;
2023/12/03 09:41:17;;;;;;;11.5;6.7;;;;;;;;;;;;;
2023/12/03 09:43:47;;;;;;;9.2;5.6;;;;;;;;;;;;;
2023/12/03 09:46:16;;;;;;;8.8;5.7;;;;;;;;;;;;;
2023/12/03 09:48:41;;;;;;;8.6;5.3;;;;;;;;;;;;;
2023/12/03 09:51:09;;;;;;;12.1;6.9;;;;;;;;;;;;;
2023/12/03 09:53:35;;;;;;;16.3;11.8;;;;;;;;;;;;;
2023/12/03 09:55:59;;;;;;;8.5;6.2;;;;;;;;;;;;;
2023/12/03 09:58:25;;;;;;;11.1;6.7;;;;;;;;;;;;;
2023/12/03 10:00:50;;;;;;;10.7;7.3;;;;;;;;;;;;;
2023/12/03 10:03:18;;;;;;;13.9;7.7;;;;;;;;;;;;;
2023/12/03 10:05:44;;;;;;;10.7;7;;;;;;;;;;;;;
2023/12/03 10:08:14;;;;;;;13.6;7.4;;;;;;;;;;;;;
2023/12/03 10:10:41;;;;;;;11.2;7.5;;;;;;;;;;;;;
2023/12/03 10:13:06;;;;;;;9.4;6.2;;;;;;;;;;;;;
2023/12/03 10:15:32;;;;;;;9.3;5.8;;;;;;;;;;;;;
2023/12/03 10:17:57;;;;;;;11;6.2;;;;;;;;;;;;;
2023/12/03 10:20:24;;;;;;;11.6;5.7;;;;;;;;;;;;;
2023/12/03 10:22:49;;;;;;;10.8;6.4;;;;;;;;;;;;;
2023/12/03 10:25:19;;;;;;;10;5.6;;;;;;;;;;;;;
2023/12/03 10:27:49;;;;;;;8.3;5.4;;;;;;;;;;;;;
2023/12/03 10:30:20;;;;;;;10.8;6.3;;;;;;;;;;;;;
2023/12/03 10:32:49;;;;;;;7.8;5.3;;;;;;;;;;;;;
2023/12/03 10:35:15;;;;;;;8.1;5.3;;;;;;;;;;;;;
2023/12/03 10:37:40;;;;;;;7.4;5.1;;;;;;;;;;;;;
2023/12/03 10:40:10;;;;;;;7.8;4.9;;;;;;;;;;;;;
2023/12/03 10:42:36;;;;;;;6.5;4.3;;;;;;;;;;;;;
2023/12/03 10:45:01;;;;;;;7.4;4.2;;;;;;;;;;;;;
2023/12/03 10:47:26;;;;;;;6.1;4.1;;;;;;;;;;;;;
2023/12/03 10:49:51;;;;;;;6.5;4.6;;;;;;;;;;;;;
2023/12/03 10:52:17;;;;;;;6.2;4.2;;;;;;;;;;;;;
2023/12/03 10:54:42;;;;;;;9.1;4.7;;;;;;;;;;;;;
2023/12/03 10:57:07;;;;;;;9.4;5.4;;;;;;;;;;;;;
2023/12/03 10:59:32;;;;;;;9.9;6.2;;;;;;;;;;;;;
2023/12/03 11:02:07;;;;;;;9.3;5.5;;;;;;;;;;;;;
2023/12/03 11:04:27;;;;;;;8.5;5.3;;;;;;;;;;;;;
2023/12/03 11:06:58;;;;;;;7.6;5.3;;;;;;;;;;;;;
2023/12/03 11:09:22;;;;;;;6.8;4.4;;;;;;;;;;;;;
2023/12/03 11:11:48;;;;;;;8.1;5.1;;;;;;;;;;;;;
2023/12/03 11:14:15;;;;;;;9;5.9;;;;;;;;;;;;;
2023/12/03 11:16:42;;;;;;;9;5.6;;;;;;;;;;;;;
2023/12/03 11:19:07;;;;;;;10.1;5.5;;;;;;;;;;;;;
2023/12/03 11:21:33;;;;;;;12.3;5.6;;;;;;;;;;;;;
2023/12/03 11:23:58;;;;;;;10.8;5.6;;;;;;;;;;;;;
2023/12/03 11:26:25;;;;;;;10.3;6;;;;;;;;;;;;;
2023/12/03 11:34:49;;;;;;;9.5;4.6;;;;;;;0.48;75.20898;941.7067;;;;
2023/12/03 11:37:14;;;;;;;8.6;4.7;;;;;;;0.44;73.71973;941.733;;;;
2023/12/03 11:39:41;;;;;;;7.4;4.7;;;;;;;0.3;72.70313;941.7474;;;;
2023/12/03 11:42:06;;;;;;;8;5.2;;;;;;;0.44;73.94434;941.7653;;;;
2023/12/03 11:44:35;;;;;;;8.2;5.4;;;;;;;0.39;72.58496;941.8369;;;;
2023/12/03 11:47:03;;;;;;;8.1;5.8;;;;;;;0.45;72.91797;941.837;;;;
2023/12/03 11:49:31;;;;;;;9.1;5.2;;;;;;;0.45;70.86621;941.8517;;;;
2023/12/03 11:51:57;;;;;;;7.1;3.8;;;;;;;0.54;69.55371;941.8769;;;;
2023/12/03 11:54:24;;;;;;;6.5;4.3;;;;;;;0.66;70.17578;941.9146;;;;
2023/12/03 11:56:50;;;;;;;7.1;4.5;;;;;;;0.52;71.75977;941.8469;;;;
2023/12/03 12:01:26;;;;;;;8.6;4.9;;;;;;;0.36;73.71582;941.8309;;;;
2023/12/03 12:03:59;;;;;;;18.7;9.8;;;;;;;0.34;73.67969;941.8464;;;;
2023/12/03 12:06:34;;;;;;;33.1;16.6;;;;;;;0.35;74.25;941.8516;;;;
2023/12/03 12:09:02;;;;;;;107.6;46.6;;;;;;;0.4;75.16113;941.798;;;;
2023/12/03 12:11:29;;;;;;;79.3;33.6;;;;;;;0.39;75.14941;941.8287;;;;
2023/12/03 12:13:56;;;;;;;179.7;77.1;;;;;;;0.42;75.39941;941.7344;;;;
2023/12/03 12:16:32;;;;;;;168.4;81.9;;;;;;;0.35;76.11133;941.8222;;;;
2023/12/03 12:19:03;;;;;;;21.2;12.1;;;;;;;0.26;74.33594;941.9169;;;;
2023/12/03 12:21:33;;;;;;;55.3;26.8;;;;;;;0.31;75.72656;941.7815;;;;
2023/12/03 12:24:03;;;;;;;17.7;9.4;;;;;;;0.34;76.5127;941.8499;;;;
2023/12/03 12:26:28;;;;;;;11.1;6.6;;;;;;;0.25;74.74512;941.7964;;;;
2023/12/03 12:28:53;;;;;;;10.4;6;;;;;;;0.22;74.01465;941.8274;;;;
2023/12/03 12:31:24;;;;;;;7.1;4.9;;;;;;;0.29;73.87207;941.7187;;;;
2023/12/03 12:33:50;;;;;;;4;3.3;;;;;;;0.15;73.75977;941.7612;;;;
2023/12/03 12:36:18;;;;;;;9;5;;;;;;;0.11;73.62793;941.7469;;;;
2023/12/03 12:38:45;;;;;;;6.5;3.8;;;;;;;0.17;73.72754;941.7551;;;;
2023/12/03 12:41:15;;;;;;;5;3.6;;;;;;;0.09;74.2168;941.6202;;;;
2023/12/03 12:43:42;;;;;;;6;3.9;;;;;;;0.09;75.77637;941.7015;;;;
2023/12/03 12:46:09;;;;;;;7.1;4.3;;;;;;;0.08;76.34277;941.7058;;;;
2023/12/03 12:48:35;;;;;;;6.6;3.9;;;;;;;0;75.9834;941.6826;;;;
2023/12/03 12:50:59;;;;;;;5.8;3.8;;;;;;;-0.03;75.6084;941.7101;;;;
2023/12/03 12:53:24;;;;;;;12.3;5.6;;;;;;;-0.05;77.05371;941.6692;;;;
2023/12/03 12:55:52;;;;;;;9.7;6;;;;;;;0.08;77.30078;941.6766;;;;
2023/12/03 12:58:17;;;;;;;9.6;5.8;;;;;;;0;77.84277;941.681;;;;
2023/12/03 13:00:42;;;;;;;8.5;5.7;;;;;;;-0.03;78.50684;941.7034;;;;
2023/12/03 13:03:10;;;;;;;9.6;6.1;;;;;;;0.16;78.35059;941.6847;;;;
2023/12/03 13:05:41;;;;;;;10.2;5.5;;;;;;;0.11;77.65137;941.6384;;;;
2023/12/03 13:08:09;;;;;;;7.5;5.1;;;;;;;0.02;77.17676;941.5957;;;;
2023/12/03 13:10:41;;;;;;;8.6;5.4;;;;;;;0.07;78;941.6251;;;;
2023/12/03 13:13:11;;;;;;;6.5;5.2;;;;;;;0.04;77.42676;941.5851;;;;
2023/12/03 13:15:41;;;;;;;8.5;6;;;;;;;0.07;78.50293;941.5642;;;;
2023/12/03 13:18:06;;;;;;;9.1;6;;;;;;;0.08;78.5918;941.5333;;;;
2023/12/03 13:20:32;;;;;;;12.7;6.9;;;;;;;-0.03;78.92773;941.4997;;;;
2023/12/03 13:22:59;;;;;;;13.3;7.2;;;;;;;-0.03;79.39648;941.4662;;;;
2023/12/03 13:25:30;;;;;;;11.2;6.5;;;;;;;-0.15;77.9043;941.4398;;;;
2023/12/03 13:27:59;;;;;;;15.6;7.5;;;;;;;-0.19;78.58594;941.4095;;;;
2023/12/03 13:30:31;;;;;;;12;7.4;;;;;;;-0.14;79.9209;941.4358;;;;
2023/12/03 13:33:04;;;;;;;9;5.9;;;;;;;0;79.82617;941.4531;;;;
2023/12/03 13:35:34;;;;;;;8.2;5.7;;;;;;;0.11;79.31152;941.3801;;;;
2023/12/03 13:38:00;;;;;;;9.4;6;;;;;;;0.05;79.25488;941.4129;;;;
2023/12/03 13:40:25;;;;;;;8.9;6;;;;;;;-0.06;79.00098;941.3878;;;;
2023/12/03 13:42:56;;;;;;;6.3;3.8;;;;;;;0;77.73145;941.3904;;;;
2023/12/03 13:45:21;;;;;;;9.9;4.7;;;;;;;-0.07;78.30859;941.3434;;;;
2023/12/03 13:47:52;;;;;;;6.7;4.3;;;;;;;-0.13;78.09473;941.3994;;;;
2023/12/03 13:50:23;;;;;;;9.2;5.8;;;;;;;-0.16;77.87793;941.3761;;;;
2023/12/03 13:52:54;;;;;;;12.8;6.5;;;;;;;-0.09;77.45703;941.3875;;;;
2023/12/03 13:55:24;;;;;;;11.3;6.2;;;;;;;-0.32;77.57227;941.4001;;;;
2023/12/03 13:57:49;;;;;;;9.4;5.4;;;;;;;-0.6;77.99902;941.4633;;;;
2023/12/03 14:00:27;;;;;;;8.6;5.8;;;;;;;-0.73;78.33105;941.479;;;;
2023/12/03 14:02:58;;;;;;;11.7;6.9;;;;;;;-0.98;78.02832;941.4993;;;;
2023/12/03 14:05:24;;;;;;;10.8;7.4;;;;;;;-1.14;77.51074;941.4865;;;;
2023/12/03 14:07:49;;;;;;;13.1;7.6;;;;;;;-1.08;79.70996;941.4719;;;;
2023/12/03 14:10:21;;;;;;;11.9;7.4;;;;;;;-1.13;80.05566;941.4777;;;;
2023/12/03 14:12:50;;;;;;;12.5;7.5;;;;;;;-1.02;79.75391;941.4948;;;;
2023/12/03 14:15:16;;;;;;;10.7;7.4;;;;;;;-0.92;79.40527;941.4978;;;;
2023/12/03 14:17:46;;;;;;;9.4;6.9;;;;;;;-0.95;79.80078;941.4874;;;;
2023/12/03 14:20:20;;;;;;;13.1;8.5;;;;;;;-1.08;79.8877;941.5228;;;;
2023/12/03 14:22:52;;;;;;;13.2;7.4;;;;;;;-1.25;78.63379;941.4788;;;;
2023/12/03 14:25:25;;;;;;;13.2;8.4;;;;;;;-1.25;78.7666;941.5338;;;;
2023/12/03 14:27:49;;;;;;;19.5;11.1;;;;;;;-1.22;79.92871;941.5646;;;;
2023/12/03 14:30:19;;;;;;;17;10.6;;;;;;;-1.18;80.7334;941.6239;;;;
2023/12/03 14:32:50;;;;;;;18.1;12;;;;;;;-1.16;80.86133;941.5725;;;;
2023/12/03 14:35:16;;;;;;;24.1;13.3;;;;;;;-1.2;80.75195;941.6286;;;;
2023/12/03 14:37:49;;;;;;;30.1;13.8;;;;;;;-1.25;81.1875;941.6303;;;;
2023/12/03 14:40:15;;;;;;;27;13.3;;;;;;;-1.21;81.18555;941.6336;;;;
2023/12/03 14:42:48;;;;;;;20.5;10.6;;;;;;;-1.28;80.94824;941.6677;;;;
2023/12/03 14:45:16;;;;;;;17.4;9.1;;;;;;;-1.28;81.3252;941.6099;;;;
2023/12/03 14:47:48;;;;;;;18.7;8.8;;;;;;;-1.26;80.77539;941.6847;;;;
2023/12/03 14:50:17;;;;;;;42.2;17.3;;;;;;;-1.31;80.1543;941.6689;;;;
2023/12/03 14:52:42;;;;;;;16.6;10;;;;;;;-1.49;79.76465;941.7291;;;;
2023/12/03 14:55:15;;;;;;;18.3;10.4;;;;;;;-1.58;79.60352;941.673;;;;
2023/12/03 14:57:40;;;;;;;20.2;11.2;;;;;;;-1.59;80.4668;941.7311;;;;
2023/12/03 15:00:19;;;;;;;22.6;11.9;;;;;;;-1.6;81.02051;941.7805;;;;
2023/12/03 15:02:55;;;;;;;37.7;17.2;;;;;;;-1.64;81.22363;941.7347;;;;
2023/12/03 15:05:26;;;;;;;44.2;19.5;;;;;;;-1.73;80.90527;941.7472;;;;
2023/12/03 15:07:56;;;;;;;49.3;23.5;;;;;;;-1.7;81.8125;941.7541;;;;
2023/12/03 15:10:27;;;;;;;38.4;19.3;;;;;;;-1.65;81.93262;941.7219;;;;
2023/12/03 15:12:54;;;;;;;28.6;15.7;;;;;;;-1.62;82.22656;941.7377;;;;
2023/12/03 15:15:21;;;;;;;31.9;17.7;;;;;;;-1.65;82.08789;941.7475;;;;
2023/12/03 15:17:50;;;;;;;26.2;15.9;;;;;;;-1.61;81.88574;941.7252;;;;
2023/12/03 15:20:21;;;;;;;28.9;16.1;;;;;;;-1.64;81.25684;941.7886;;;;
2023/12/03 15:22:46;;;;;;;26.9;16.3;;;;;;;-1.79;79.99609;941.7408;;;;
2023/12/03 15:25:15;;;;;;;25.1;14.3;;;;;;;-1.91;80.44141;941.7927;;;;
2023/12/03 15:27:39;;;;;;;35.2;19.6;;;;;;;-1.94;80.8877;941.7958;;;;
2023/12/03 15:30:04;;;;;;;33.3;20.1;;;;;;;-1.87;81.42285;941.7786;;;;
2023/12/03 15:32:36;;;;;;;37.3;21.4;;;;;;;-1.9;81.19531;941.8744;;;;
2023/12/03 15:35:03;;;;;;;42.1;24.6;;;;;;;-1.96;80.69727;941.8504;;;;
2023/12/03 15:37:27;;;;;;;55.5;29.9;;;;;;;-2;80.7666;941.9281;;;;
2023/12/03 15:39:53;;;;;;;58.2;29.9;;;;;;;-2.07;80.84082;941.8494;;;;
2023/12/03 15:42:20;;;;;;;49.9;25.9;;;;;;;-2.11;81.02246;941.8672;;;;
2023/12/03 15:44:50;;;;;;;41.8;23;;;;;;;-2.11;81.7207;941.9037;;;;
2023/12/03 15:47:15;;;;;;;51.8;28.8;;;;;;;-2.11;81.44336;941.9025;;;;
2023/12/03 15:49:44;;;;;;;70.3;36.8;;;;;;;-2.23;80.2793;941.8641;;;;
2023/12/03 15:52:09;;;;;;;66.5;32.9;;;;;;;-2.31;80.92871;941.9222;;;;
2023/12/03 15:54:34;;;;;;;76.3;33;;;;;;;-2.31;81.51563;941.9008;;;;
2023/12/03 15:57:00;;;;;;;96.5;38.2;;;;;;;-2.25;81.02734;941.8806;;;;
2023/12/03 15:59:30;;;;;;;103.2;40.6;;;;;;;-2.34;81.25391;941.9241;;;;
2023/12/03 16:01:57;;;;;;;68.2;32.6;;;;;;;-2.31;80.95117;941.9363;;;;
2023/12/03 16:04:31;;;;;;;90.6;36.9;;;;;;;-2.35;80.56543;941.9766;;;;
2023/12/03 16:06:58;;;;;;;65.8;31;;;;;;;-2.49;79.94141;941.9919;;;;
2023/12/03 16:09:23;;;;;;;54.8;27.5;;;;;;;-2.6;79.77734;942.0097;;;;
2023/12/03 16:11:49;;;;;;;51.1;25.4;;;;;;;-2.78;80.2959;942.0058;;;;
2023/12/03 16:14:18;;;;;;;39.4;23.3;;;;;;;-2.91;80.49316;942.0237;;;;
2023/12/03 16:16:44;;;;;;;36.5;19.9;;;;;;;-3.04;81.61719;941.9743;;;;
2023/12/03 16:19:09;;;;;;;28.1;16.8;;;;;;;-3.07;81.1582;941.9708;;;;
2023/12/03 16:21:34;;;;;;;27.8;16.5;;;;;;;-3.14;81.31934;941.9916;;;;
2023/12/03 16:24:03;;;;;;;29;17.7;;;;;;;-3.08;82.33984;942.079;;;;
2023/12/03 16:26:28;;;;;;;32.7;19.1;;;;;;;-3.16;81.66992;942.0952;;;;
2023/12/03 16:28:58;;;;;;;36.4;20.3;;;;;;;-3.1;82.04688;942.1392;;;;
2023/12/03 16:31:28;;;;;;;32.9;20;;;;;;;-3.06;82.65137;942.1418;;;;
2023/12/03 16:33:53;;;;;;;39;21.2;;;;;;;-2.99;82.32227;942.1209;;;;
2023/12/03 16:36:18;;;;;;;41.6;22.6;;;;;;;-2.87;82.82324;942.0983;;;;
2023/12/03 16:38:43;;;;;;;37;21.9;;;;;;;-2.83;82.21973;942.0517;;;;
2023/12/03 16:41:09;;;;;;;30.8;20.6;;;;;;;-2.92;80.3457;942.1379;;;;
2023/12/03 16:43:35;;;;;;;37.2;20.7;;;;;;;-3.03;80.68945;941.9902;;;;
2023/12/03 16:46:04;;;;;;;28.9;18.2;;;;;;;-3.11;81.32617;942.1207;;;;
2023/12/03 16:48:36;;;;;;;35.7;20;;;;;;;-3.09;82.49316;942.1744;;;;
2023/12/03 16:51:04;;;;;;;33.8;18.8;;;;;;;;;;;;;
2023/12/03 16:53:28;;;;;;;33.3;19.4;;;;;;;;;;;;;
2023/12/03 16:55:53;;;;;;;41.9;22.3;;;;;;;;;;;;;
2023/12/03 16:58:18;;;;;;;40.2;22.4;;;;;;;;;;;;;
2023/12/03 17:00:44;;;;;;;32;18.2;;;;;;;;;;;;;
2023/12/03 17:03:08;;;;;;;70.5;38.4;;;;;;;;;;;;;
2023/12/03 17:05:35;;;;;;;56.1;32.6;;;;;;;;;;;;;
2023/12/03 17:08:03;;;;;;;71.2;44.9;;;;;;;;;;;;;
2023/12/03 17:10:25;;;;;;;46.5;27.9;;;;;;;;;;;;;
2023/12/03 17:12:52;;;;;;;43.1;24;;;;;;;;;;;;;
2023/12/03 17:15:16;;;;;;;147.7;81.7;;;;;;;;;;;;;
2023/12/03 17:17:42;;;;;;;36.1;21.3;;;;;;;;;;;;;
2023/12/03 17:20:09;;;;;;;32.7;19.4;;;;;;;;;;;;;
2023/12/03 17:22:35;;;;;;;38.7;22.4;;;;;;;;;;;;;
2023/12/03 17:25:00;;;;;;;146.6;77.3;;;;;;;;;;;;;
2023/12/03 17:27:27;;;;;;;131.9;71.4;;;;;;;;;;;;;
2023/12/03 17:29:53;;;;;;;145.3;71.9;;;;;;;;;;;;;
2023/12/03 17:32:18;;;;;;;186.1;89.7;;;;;;;;;;;;;
2023/12/03 17:34:43;;;;;;;77.7;39.1;;;;;;;;;;;;;
2023/12/03 17:37:10;;;;;;;93.1;46;;;;;;;;;;;;;
2023/12/03 17:39:35;;;;;;;127.9;58.9;;;;;;;;;;;;;
2023/12/03 17:42:00;;;;;;;73.7;38.3;;;;;;;;;;;;;
2023/12/03 17:44:25;;;;;;;118.2;60.6;;;;;;;;;;;;;
2023/12/03 17:46:53;;;;;;;130.3;61.4;;;;;;;;;;;;;
2023/12/03 17:49:18;;;;;;;49.5;24.7;;;;;;;;;;;;;
2023/12/03 17:51:43;;;;;;;32.5;18.2;;;;;;;;;;;;;
2023/12/03 17:54:08;;;;;;;30.1;17.8;;;;;;;;;;;;;
2023/12/03 17:56:36;;;;;;;33.6;19.4;;;;;;;;;;;;;
2023/12/03 17:59:01;;;;;;;41.6;25.3;;;;;;;;;;;;;
2023/12/03 18:01:26;;;;;;;64.1;38.2;;;;;;;;;;;;;
2023/12/03 18:03:51;;;;;;;81.5;41.6;;;;;;;;;;;;;
2023/12/03 18:06:19;;;;;;;59;30.2;;;;;;;;;;;;;
2023/12/03 18:08:44;;;;;;;76.6;40.4;;;;;;;;;;;;;
2023/12/03 18:11:11;;;;;;;83.5;40.7;;;;;;;;;;;;;
2023/12/03 18:13:37;;;;;;;79.3;37.7;;;;;;;;;;;;;
2023/12/03 18:16:02;;;;;;;38.7;21.1;;;;;;;;;;;;;